Sunday, December 17, 2017, 2:40 PM EST
Back to Local

KBGM, Binghamton Regional Airport

Location: Johnson City, NY, United States Lat: 42.2
Local Time: 2:40 PM EST (19:40 GMT) Lon: -75.983
Time Zone: US/Eastern Elev: 1637 ft

Show me the last for .
Show Decoded

2017-12-17 14:02 METAR KBGM 171902Z 06003KT 10SM FEW011 OVC042 M06/M10 A3014 RMK AO2 T10561100 =
2017-12-17 13:53 METAR KBGM 171853Z 04003KT 10SM BKN011 OVC041 M06/M09 A3014 RMK AO2 SLP233
                 T10561094 =
2017-12-17 12:53 METAR KBGM 171753Z 08003KT 10SM OVC012 M06/M10 A3016 RMK AO2 SLP240 T10611100
                 11056 21072 58016 =
2017-12-17 11:53 METAR KBGM 171653Z 05005KT 10SM OVC012 M06/M10 A3019 RMK AO2 SLP249 T10611100 =
2017-12-17 10:53 METAR KBGM 171553Z 35003KT 10SM OVC013 M06/M10 A3021 RMK AO2 SLP257 T10611100 =
2017-12-17 09:53 METAR KBGM 171453Z 00000KT 10SM OVC012 M07/M11 A3021 RMK AO2 SLP257 T10671106
                 51009 =
2017-12-17 08:53 METAR KBGM 171353Z 00000KT 10SM OVC013 M07/M11 A3020 RMK AO2 SLP254 T10721106 =
2017-12-17 07:53 METAR KBGM 171253Z 02003KT 10SM OVC014 M07/M11 A3019 RMK AO2 SLP250 T10721106 =
2017-12-17 06:53 METAR KBGM 171153Z 00000KT 10SM OVC013 M07/M11 A3018 RMK AO2 SLP247 70003
                 T10721106 11067 21072 55001 =
2017-12-17 05:53 METAR KBGM 171053Z 02003KT 10SM BKN012 OVC050 M07/M11 A3015 RMK AO2 SLP234
                 T10721106 =
2017-12-17 05:00 METAR KBGM 171000Z AUTO 00000KT 10SM BKN014 OVC027 M07/M10 A3017 RMK AO2
                 T10671100 =
2017-12-17 04:53 METAR KBGM 170953Z AUTO 00000KT 10SM BKN015 OVC027 M07/M10 A3016 RMK AO2 SLP240
                 T10671100 =
2017-12-17 03:53 METAR KBGM 170853Z AUTO 27004KT 10SM OVC017 M07/M10 A3018 RMK AO2 SLP246
                 T10671100 53022 =
2017-12-17 02:53 METAR KBGM 170753Z AUTO 25003KT 10SM OVC019 M07/M11 A3016 RMK AO2 SLP237
                 T10721106 =
2017-12-17 01:53 METAR KBGM 170653Z AUTO 33003KT 10SM OVC019 M07/M10 A3014 RMK AO2 SLP229
                 T10671100 =
2017-12-17 00:53 METAR KBGM 170553Z AUTO 35003KT 10SM OVC018 M07/M10 A3012 RMK AO2 SLP222
                 T10671100 11061 21067 50002 =
2017-12-16 23:53 METAR KBGM 170453Z AUTO 32003KT 10SM OVC018 M07/M09 A3012 RMK AO2 SLP225
                 T10671094 410391078 =
2017-12-16 22:53 METAR KBGM 170353Z 00000KT 10SM OVC019 M07/M09 A3011 RMK AO2 SLP222 T10671094 =
2017-12-16 21:53 METAR KBGM 170253Z 30003KT 10SM OVC019 M07/M09 A3011 RMK AO2 SLP222 T10671089
                 51019 =
2017-12-16 20:53 METAR KBGM 170153Z 31005KT 10SM OVC018 M07/M09 A3010 RMK AO2 SLP219 T10671089 =
2017-12-16 19:53 METAR KBGM 170053Z 34005KT 10SM OVC021 M06/M08 A3008 RMK AO2 SLP211 T10611083 =
2017-12-16 18:53 METAR KBGM 162353Z 33004KT 6SM BR OVC021 M06/M08 A3005 RMK AO2 SNE23 SLP203
                 P0000 60000 T10611083 11039 21061 51035 =
2017-12-16 18:10 METAR KBGM 162310Z 32005KT 6SM -SN BR FEW008 SCT013 OVC021 M06/M08 A3002 RMK AO2
                 P0000 T10561078 =
2017-12-16 18:08 METAR KBGM 162308Z 32006KT 6SM -SN BR BKN011 BKN016 OVC021 M06/M08 A3002 RMK AO2
                 CIG 008V013 P0000 T10561078 =
2017-12-16 17:59 METAR KBGM 162259Z 32005KT 6SM -SN BR BKN009 OVC014 M06/M07 A3002 RMK AO2 CIG
                 008V012 P0000 T10561072 =
2017-12-16 17:53 METAR KBGM 162253Z 32005KT 2SM -SN OVC011 M06/M07 A3002 RMK AO2 SFC VIS 7 SLP190
                 P0000 T10561072 =
2017-12-16 17:32 METAR KBGM 162232Z 31005KT 2SM -SN BR FEW009 BKN013 OVC018 M06/M07 A3000 RMK AO2
                 SFC VIS 5 P0000 T10561072 =
2017-12-16 17:14 METAR KBGM 162214Z 32005KT 2SM -SN BR SCT015 BKN020 OVC055 M06/M07 A2999 RMK AO2
                 SFC VIS 4 P0000 T10561072 =
2017-12-16 16:53 METAR KBGM 162153Z 32006KT 2SM -SN BR FEW013 SCT020 OVC032 M06/M07 A2998 RMK AO2
                 SFC VIS 3 SLP178 P0000 T10561072 =
2017-12-16 16:32 METAR KBGM 162132Z 31006KT 2SM -SN BR FEW014 OVC030 M06/M07 A2997 RMK AO2 P0000
                 T10561072 =
2017-12-16 16:08 METAR KBGM 162108Z 31005KT 1 3/4SM -SN BR FEW012 OVC029 M05/M07 A2996 RMK AO2
                 TWR VIS 2 P0000 T10501072 =
2017-12-16 15:53 METAR KBGM 162053Z 31007KT 2SM -SN FEW012 OVC037 M05/M08 A2994 RMK AO2 SFC VIS 3
                 SNB1957 SLP164 P0000 60000 T10501078 53025 =
2017-12-16 15:15 METAR KBGM 162015Z 31009KT 2SM -SN FEW014 BKN040 OVC049 M04/M08 A2992 RMK AO2
                 SFC VIS 4 SNB1957 P0000 T10441078 =
2017-12-16 14:53 METAR KBGM 161953Z 31008G18KT 7SM BKN047 OVC055 M04/M07 A2991 RMK AO2 SNE53
                 SLP154 P0000 T10441072 =

Support USWX by starting your Amazon purchase here.